Time;durP1;ratioP1;P1;durP2;ratioP2;P2;SDS_P1;SDS_P2;PMS_P1;PMS_P2;Temp;Humidity;BMP_temperature;BMP_pressure;BME280_temperature;BME280_humidity;BME280_pressure;Samples;Min_cycle;Max_cycle;Signal;HPM_P1;HPM_P2
2021/10/19 00:00:47;;;;;;;7.78;6.50;;;;;;;17.31;67.41;102296.91;144991;613;6002;-83
2021/10/19 00:03:14;;;;;;;9.60;6.70;;;;;;;17.38;67.34;102301.47;144992;579;6002;-85
2021/10/19 00:05:41;;;;;;;8.57;6.62;;;;;;;17.46;67.08;102299.06;144992;640;6002;-86
2021/10/19 00:08:07;;;;;;;6.70;6.00;;;;;;;17.45;66.99;102306.06;144992;660;6002;-85
2021/10/19 00:10:34;;;;;;;6.30;5.70;;;;;;;17.44;67.15;102300.75;144992;571;6002;-85
2021/10/19 00:13:00;;;;;;;6.05;5.30;;;;;;;17.42;67.15;102303.34;144992;569;6002;-85
2021/10/19 00:15:27;;;;;;;5.65;5.12;;;;;;;17.39;66.90;102304.13;144991;585;6002;-85
2021/10/19 00:17:53;;;;;;;6.45;5.43;;;;;;;17.29;67.04;102294.25;144992;608;6002;-85
2021/10/19 00:20:20;;;;;;;5.65;5.07;;;;;;;17.23;67.07;102296.72;144992;589;6002;-85
2021/10/19 00:22:49;;;;;;;7.37;5.70;;;;;;;17.19;67.20;102300.09;144992;597;6002;-83
2021/10/19 00:25:17;;;;;;;6.05;5.55;;;;;;;17.20;67.56;102294.00;144992;581;6002;-81
2021/10/19 00:27:44;;;;;;;5.95;5.30;;;;;;;17.22;67.33;102295.81;144992;588;6003;-83
2021/10/19 00:30:13;;;;;;;6.90;5.10;;;;;;;17.23;67.19;102299.34;144992;589;6002;-83
2021/10/19 00:32:41;;;;;;;6.62;5.05;;;;;;;17.20;67.55;102301.88;144992;602;6002;-84
2021/10/19 00:35:13;;;;;;;5.90;4.78;;;;;;;17.22;67.54;102301.03;144992;583;6003;-82
2021/10/19 00:37:40;;;;;;;5.28;4.70;;;;;;;17.26;66.96;102304.66;144992;585;6002;-85
2021/10/19 00:40:07;;;;;;;6.47;5.80;;;;;;;17.26;66.80;102293.25;144992;730;6002;-85
2021/10/19 00:42:35;;;;;;;6.35;4.75;;;;;;;17.25;66.66;102300.25;144992;654;6002;-83
2021/10/19 00:45:07;;;;;;;5.70;5.10;;;;;;;17.23;66.95;102304.59;144991;597;6002;-84
2021/10/19 00:47:35;;;;;;;5.87;5.25;;;;;;;17.09;67.03;102295.44;144992;587;6002;-84
2021/10/19 00:50:03;;;;;;;7.22;5.50;;;;;;;17.03;67.26;102296.12;144992;591;6002;-83
2021/10/19 00:52:29;;;;;;;5.00;4.57;;;;;;;17.04;67.26;102292.69;144992;645;6002;-85
2021/10/19 00:54:56;;;;;;;5.10;4.57;;;;;;;16.99;67.17;102295.19;144992;597;6002;-85
2021/10/19 00:57:22;;;;;;;5.70;5.10;;;;;;;17.00;67.03;102298.69;144992;628;6002;-86
2021/10/19 00:59:49;;;;;;;5.18;4.68;;;;;;;16.99;67.26;102294.25;144992;587;6002;-84
2021/10/19 01:02:16;;;;;;;5.30;4.80;;;;;;;17.00;66.71;102299.56;144992;585;6002;-85
2021/10/19 01:04:43;;;;;;;5.22;4.72;;;;;;;17.02;67.14;102297.87;144991;576;6002;-84
2021/10/19 01:07:11;;;;;;;5.25;4.75;;;;;;;17.04;66.98;102296.19;144992;587;6002;-81
2021/10/19 01:09:38;;;;;;;5.40;4.90;;;;;;;17.07;67.06;102304.97;144992;710;6002;-85
2021/10/19 01:12:06;;;;;;;5.60;5.00;;;;;;;17.08;67.06;102302.41;144992;592;6002;-84
2021/10/19 01:14:33;;;;;;;5.53;4.65;;;;;;;17.09;67.13;102303.31;144992;617;6002;-86
2021/10/19 01:17:01;;;;;;;5.82;4.82;;;;;;;17.07;66.77;102297.09;144992;715;6002;-84
2021/10/19 01:19:28;;;;;;;5.50;4.85;;;;;;;17.07;67.09;102304.97;144992;655;6002;-84
2021/10/19 01:22:01;;;;;;;5.20;4.62;;;;;;;17.06;66.84;102304.09;144992;710;6002;-85
2021/10/19 01:24:28;;;;;;;5.07;4.57;;;;;;;17.05;67.01;102312.81;144992;602;6002;-84
2021/10/19 01:26:54;;;;;;;5.12;4.62;;;;;;;17.06;66.61;102311.09;144992;585;6002;-83
2021/10/19 01:29:21;;;;;;;5.37;4.75;;;;;;;17.04;66.96;102309.31;144992;601;6002;-84
2021/10/19 01:31:50;;;;;;;5.20;4.70;;;;;;;17.04;66.96;102304.06;144992;565;6002;-84
2021/10/19 01:34:17;;;;;;;6.32;4.60;;;;;;;17.04;66.83;102304.06;144992;564;6002;-84
2021/10/19 01:36:45;;;;;;;6.72;5.10;;;;;;;17.04;66.76;102308.44;144992;564;6002;-83
2021/10/19 01:39:12;;;;;;;6.03;4.78;;;;;;;17.03;66.86;102310.12;144992;569;6002;-83
2021/10/19 01:41:41;;;;;;;5.20;4.68;;;;;;;17.03;67.14;102307.50;144993;564;6002;-84
2021/10/19 01:44:08;;;;;;;5.22;4.72;;;;;;;17.03;67.12;102311.87;144993;609;6002;-83
2021/10/19 01:46:34;;;;;;;6.75;4.85;;;;;;;17.02;66.82;102311.00;144993;574;6002;-82
2021/10/19 01:49:01;;;;;;;4.65;4.22;;;;;;;17.01;67.31;102310.97;144993;620;6002;-84
2021/10/19 01:51:27;;;;;;;5.37;4.85;;;;;;;17.01;67.00;102316.22;144993;587;6002;-83
2021/10/19 01:53:54;;;;;;;7.05;4.60;;;;;;;17.00;67.29;102312.66;144993;585;6002;-83
2021/10/19 01:56:21;;;;;;;5.32;4.82;;;;;;;17.01;66.91;102316.22;144993;636;6002;-83
2021/10/19 01:58:47;;;;;;;6.00;4.95;;;;;;;17.00;67.19;102311.78;144993;570;6002;-83
2021/10/19 02:01:14;;;;;;;6.32;5.03;;;;;;;16.99;67.21;102310.91;144993;586;6002;-83
2021/10/19 02:03:40;;;;;;;5.45;4.95;;;;;;;16.97;67.18;102320.47;144993;570;6003;-83
2021/10/19 02:06:07;;;;;;;7.15;5.40;;;;;;;16.96;67.65;102313.44;144993;588;6002;-84
2021/10/19 02:08:34;;;;;;;7.37;6.07;;;;;;;16.94;67.32;102314.22;144993;579;6002;-84
2021/10/19 02:11:01;;;;;;;7.05;5.85;;;;;;;16.94;67.43;102320.41;144992;706;6002;-84
2021/10/19 02:13:27;;;;;;;6.97;5.90;;;;;;;16.95;67.20;102310.78;144992;663;6002;-84
2021/10/19 02:15:54;;;;;;;7.20;6.50;;;;;;;16.95;67.88;102316.03;144992;594;6002;-84
2021/10/19 02:18:21;;;;;;;7.87;6.30;;;;;;;16.95;67.20;102310.78;144992;573;6002;-85
2021/10/19 02:20:47;;;;;;;7.00;6.05;;;;;;;16.95;67.29;102321.28;144992;577;6002;-85
2021/10/19 02:23:14;;;;;;;6.85;6.15;;;;;;;16.94;67.43;102323.00;144992;743;6002;-85
2021/10/19 02:25:40;;;;;;;7.28;5.80;;;;;;;16.94;67.83;102317.78;144993;576;6002;-84
2021/10/19 02:28:07;;;;;;;6.68;5.62;;;;;;;16.95;67.59;102321.28;144993;567;6002;-83
2021/10/19 02:30:33;;;;;;;7.93;5.65;;;;;;;16.94;67.61;102317.78;144993;583;6002;-84
2021/10/19 02:33:00;;;;;;;6.37;5.10;;;;;;;16.94;67.55;102320.41;144993;684;6002;-84
2021/10/19 02:35:26;;;;;;;6.62;5.32;;;;;;;16.91;67.40;102311.53;144993;577;6002;-85
2021/10/19 02:37:57;;;;;;;7.45;5.62;;;;;;;16.89;67.59;102311.47;144993;566;6002;-84
2021/10/19 02:40:24;;;;;;;7.97;5.55;;;;;;;16.90;68.13;102307.16;144993;573;6002;-83
2021/10/19 02:42:50;;;;;;;5.30;4.80;;;;;;;16.89;67.46;102316.72;144993;575;6002;-83
2021/10/19 02:45:17;;;;;;;6.60;5.35;;;;;;;16.88;68.02;102309.72;144993;583;6002;-86
2021/10/19 02:47:44;;;;;;;6.37;5.60;;;;;;;16.84;68.12;102313.94;144993;566;6002;-85
2021/10/19 02:50:12;;;;;;;7.15;6.15;;;;;;;16.85;68.12;102320.09;144993;564;6002;-84
2021/10/19 02:52:39;;;;;;;7.43;6.50;;;;;;;16.85;67.99;102317.47;144993;650;6002;-84
2021/10/19 02:55:08;;;;;;;9.82;7.60;;;;;;;16.84;68.50;102319.16;144993;585;6002;-84
2021/10/19 02:57:34;;;;;;;9.63;8.05;;;;;;;16.82;68.00;102326.13;144993;581;6002;-84
2021/10/19 03:00:01;;;;;;;10.23;7.97;;;;;;;16.81;68.49;102318.19;144993;563;6002;-85
2021/10/19 03:02:27;;;;;;;12.30;9.73;;;;;;;16.80;68.53;102326.94;144993;573;6002;-85
2021/10/19 03:04:54;;;;;;;13.82;9.07;;;;;;;16.79;68.70;102328.66;144993;577;6002;-83
2021/10/19 03:07:20;;;;;;;15.70;10.20;;;;;;;16.81;68.40;102331.31;144993;597;6002;-84
2021/10/19 03:09:47;;;;;;;15.25;10.95;;;;;;;16.81;68.49;102321.75;144993;569;6002;-84
2021/10/19 03:12:13;;;;;;;14.77;10.65;;;;;;;16.83;68.75;102329.62;144993;603;6002;-84
2021/10/19 03:14:40;;;;;;;14.80;9.70;;;;;;;16.86;68.79;102325.41;144993;574;6002;-84
2021/10/19 03:17:06;;;;;;;13.27;9.45;;;;;;;16.87;68.42;102329.78;144993;595;6002;-84
2021/10/19 03:19:33;;;;;;;10.57;8.55;;;;;;;16.90;68.91;102338.63;144994;604;5002;-83
2021/10/19 03:21:59;;;;;;;10.70;7.45;;;;;;;16.90;68.73;102328.13;144994;588;5002;-85
2021/10/19 03:24:26;;;;;;;7.43;6.47;;;;;;;16.91;68.75;102327.25;144994;583;5002;-85
2021/10/19 03:27:16;;;;;;;7.00;6.10;;;;;;;16.93;68.93;102328.22;144994;577;5002;-86
2021/10/19 03:30:02;;;;;;;;;;;;;;;;;;;;;
2021/10/19 03:32:38;;;;;;;7.05;6.35;;;;;;;17.11;69.03;102333.97;144994;603;5004;-84
2021/10/19 03:35:05;;;;;;;10.40;6.62;;;;;;;17.16;68.57;102328.84;144994;599;5004;-84
2021/10/19 03:37:31;;;;;;;7.97;6.40;;;;;;;17.18;68.41;102332.41;144994;586;5004;-84
2021/10/19 03:39:58;;;;;;;7.25;5.68;;;;;;;17.16;68.32;102336.72;144994;627;5005;-85
2021/10/19 03:42:24;;;;;;;6.07;5.40;;;;;;;17.13;68.40;102332.31;144994;723;5004;-84
2021/10/19 03:44:51;;;;;;;7.03;5.65;;;;;;;17.12;68.53;102342.75;144994;569;5004;-84
2021/10/19 03:47:17;;;;;;;5.93;5.28;;;;;;;17.08;68.45;102340.88;144994;610;5004;-85
2021/10/19 03:49:44;;;;;;;7.68;5.95;;;;;;;17.07;68.86;102346.97;144994;568;5004;-85
2021/10/19 03:52:10;;;;;;;9.55;6.43;;;;;;;17.02;68.62;102345.09;144994;592;5004;-85
2021/10/19 03:54:37;;;;;;;7.72;5.45;;;;;;;16.99;68.41;102345.03;144994;615;5004;-83
2021/10/19 03:57:07;;;;;;;8.82;5.85;;;;;;;16.95;68.68;102339.63;144994;576;5004;-84
2021/10/19 03:59:34;;;;;;;6.10;5.50;;;;;;;16.90;69.09;102354.34;144994;576;5004;-84
2021/10/19 04:02:01;;;;;;;12.02;6.62;;;;;;;16.89;68.87;102358.69;144994;588;5004;-85
2021/10/19 04:04:27;;;;;;;7.15;6.15;;;;;;;16.87;68.92;102360.38;144994;573;5004;-84
2021/10/19 04:06:54;;;;;;;8.52;6.60;;;;;;;16.87;69.15;102369.13;144993;656;5004;-85
2021/10/19 04:09:20;;;;;;;10.23;6.60;;;;;;;16.87;69.11;102373.50;144994;590;5017;-83
2021/10/19 04:11:47;;;;;;;11.68;7.68;;;;;;;16.85;69.13;102377.78;144994;599;5002;-84
2021/10/19 04:14:13;;;;;;;8.20;7.05;;;;;;;16.81;69.64;102366.31;144994;596;5002;-84
2021/10/19 04:16:40;;;;;;;8.85;7.57;;;;;;;16.80;69.16;102366.28;144994;566;5002;-84
2021/10/19 04:19:06;;;;;;;11.00;7.75;;;;;;;16.81;69.42;102368.03;144994;697;5002;-83
2021/10/19 04:21:33;;;;;;;9.05;7.72;;;;;;;16.81;69.52;102362.78;144994;607;5002;-83
2021/10/19 04:23:59;;;;;;;11.05;8.07;;;;;;;16.83;69.48;102374.19;144994;590;5002;-84
2021/10/19 04:26:25;;;;;;;11.68;8.90;;;;;;;16.84;69.79;102376.00;144994;569;5002;-83
2021/10/19 04:28:52;;;;;;;13.77;9.65;;;;;;;16.80;69.57;102380.25;144994;681;5002;-85
2021/10/19 04:31:19;;;;;;;12.60;9.15;;;;;;;16.81;69.72;102387.31;144994;621;5002;-86
2021/10/19 04:33:45;;;;;;;10.50;9.40;;;;;;;16.83;69.94;102385.59;144994;570;5002;-86
2021/10/19 04:36:12;;;;;;;11.93;9.30;;;;;;;16.82;69.83;102380.31;144993;585;5002;-87
2021/10/19 04:38:38;;;;;;;11.23;8.90;;;;;;;16.82;69.90;102388.19;144994;632;5002;-86
2021/10/19 04:41:07;;;;;;;9.82;8.15;;;;;;;16.82;69.82;102388.19;144994;594;5002;-83
2021/10/19 04:43:34;;;;;;;9.88;6.70;;;;;;;16.89;69.88;102387.53;144994;660;5002;-81
2021/10/19 04:46:02;;;;;;;7.65;6.40;;;;;;;16.94;69.77;102382.44;144994;593;5002;-86
2021/10/19 04:48:29;;;;;;;9.07;6.75;;;;;;;17.01;70.11;102384.41;144994;591;5002;-90
2021/10/19 04:50:56;;;;;;;7.20;6.20;;;;;;;17.09;69.92;102388.16;144994;582;5002;-87
2021/10/19 04:53:22;;;;;;;7.30;6.12;;;;;;;17.10;69.30;102383.78;144994;683;5002;-84
2021/10/19 04:55:49;;;;;;;8.20;6.72;;;;;;;17.11;69.38;102383.81;144994;605;5002;-86
2021/10/19 04:58:16;;;;;;;9.15;6.53;;;;;;;17.10;69.47;102383.78;144994;579;5002;-81
2021/10/19 05:00:43;;;;;;;7.60;5.93;;;;;;;17.09;69.44;102392.53;144994;632;5002;-86
2021/10/19 05:03:10;;;;;;;8.48;6.72;;;;;;;17.02;70.28;102387.09;144994;619;5002;-85
2021/10/19 05:05:36;;;;;;;7.68;6.15;;;;;;;16.98;69.61;102394.81;144994;655;5002;-81
2021/10/19 05:08:03;;;;;;;8.23;6.47;;;;;;;16.96;69.87;102394.78;144994;575;5002;-86
2021/10/19 05:10:29;;;;;;;6.57;5.97;;;;;;;16.99;70.09;102388.69;144994;583;5002;-89
2021/10/19 05:12:56;;;;;;;7.07;5.90;;;;;;;17.02;70.11;102388.78;144993;734;5002;-86
2021/10/19 05:15:25;;;;;;;7.75;6.55;;;;;;;17.08;69.58;102394.22;144994;578;5002;-85
2021/10/19 05:17:51;;;;;;;7.72;6.28;;;;;;;17.07;69.78;102388.94;144994;593;5002;-83
2021/10/19 05:20:18;;;;;;;8.10;6.30;;;;;;;17.05;69.99;102396.75;144994;670;5002;-88
2021/10/19 05:22:45;;;;;;;7.72;6.93;;;;;;;17.07;69.70;102394.19;144994;565;5002;-85
2021/10/19 05:25:12;;;;;;;11.70;7.78;;;;;;;17.04;69.97;102398.50;144994;570;5002;-86
2021/10/19 05:27:39;;;;;;;10.88;7.78;;;;;;;17.06;69.81;102398.56;144994;598;5002;-86
2021/10/19 05:30:07;;;;;;;11.10;8.85;;;;;;;17.09;69.74;102406.50;144994;579;5002;-92
2021/10/19 05:32:33;;;;;;;13.38;8.32;;;;;;;17.03;69.57;102399.34;144994;639;5002;-88
2021/10/19 05:35:00;;;;;;;9.02;8.07;;;;;;;17.05;69.48;102417.75;144994;591;5002;-87
2021/10/19 05:37:27;;;;;;;10.88;8.98;;;;;;;17.05;69.10;102428.25;144994;577;5002;-87
2021/10/19 05:39:56;;;;;;;9.43;8.52;;;;;;;17.10;69.53;102424.03;144994;583;5002;-91
2021/10/19 05:42:23;;;;;;;11.20;8.90;;;;;;;17.19;69.15;102431.28;144994;563;5002;-92
2021/10/19 05:44:50;;;;;;;8.57;7.68;;;;;;;17.33;69.00;102435.22;144994;636;5002;-85
2021/10/19 05:47:19;;;;;;;8.88;7.18;;;;;;;17.32;68.38;102441.31;144994;592;5002;-89
2021/10/19 05:49:46;;;;;;;8.75;7.85;;;;;;;17.33;68.81;102448.34;144994;565;5002;-91
2021/10/19 05:52:12;;;;;;;9.02;7.62;;;;;;;17.36;68.61;102447.53;144994;563;5002;-86
2021/10/19 05:54:39;;;;;;;10.00;7.65;;;;;;;17.44;68.71;102450.41;144994;636;5003;-91
2021/10/19 05:57:06;;;;;;;8.98;8.07;;;;;;;17.49;68.29;102451.41;144994;572;5002;-87
2021/10/19 05:59:32;;;;;;;10.77;9.68;;;;;;;17.46;67.70;102453.94;144994;585;5002;-91
2021/10/19 06:02:03;;;;;;;15.07;10.48;;;;;;;17.40;68.66;102452.03;144994;589;5003;-88
2021/10/19 06:07:37;;;;;;;12.13;10.77;;;;;;;17.24;68.35;102455.94;144994;587;5002;-87
2021/10/19 06:10:04;;;;;;;15.63;10.48;;;;;;;17.23;67.56;102459.41;144994;585;5002;-88
2021/10/19 06:12:31;;;;;;;15.18;11.48;;;;;;;17.27;67.05;102450.78;144994;565;5002;-89
2021/10/19 06:14:57;;;;;;;14.07;11.93;;;;;;;17.31;68.83;102463.16;144994;608;5002;-90
2021/10/19 06:17:24;;;;;;;10.88;8.77;;;;;;;17.38;68.34;102475.59;144994;583;5002;-87
2021/10/19 06:19:50;;;;;;;7.95;6.97;;;;;;;17.38;67.70;102470.34;144994;572;5002;-86
2021/10/19 06:22:17;;;;;;;8.88;7.10;;;;;;;17.38;67.85;102472.97;144993;569;5002;-88
2021/10/19 06:24:43;;;;;;;10.13;7.43;;;;;;;17.38;67.85;102472.97;144994;677;5002;-89
2021/10/19 06:27:10;;;;;;;9.68;7.72;;;;;;;17.49;67.38;102481.19;144994;570;5002;-89
2021/10/19 06:29:36;;;;;;;10.63;7.93;;;;;;;17.60;67.20;102486.75;144994;643;5002;-88
2021/10/19 06:32:04;;;;;;;10.50;8.07;;;;;;;17.70;67.41;102493.16;144994;566;5002;-86
2021/10/19 06:34:30;;;;;;;10.52;8.45;;;;;;;17.79;66.99;102484.66;144994;592;5002;-87
2021/10/19 06:36:57;;;;;;;9.15;8.15;;;;;;;17.90;66.81;102496.38;144994;569;5002;-90
2021/10/19 06:39:23;;;;;;;11.05;8.45;;;;;;;18.00;67.16;102501.03;144994;574;5002;-90
2021/10/19 06:41:50;;;;;;;13.00;9.13;;;;;;;18.08;67.01;102502.13;144994;576;5002;-88
2021/10/19 06:44:16;;;;;;;11.12;8.27;;;;;;;18.16;66.80;102504.97;144994;580;5002;-90
2021/10/19 06:46:43;;;;;;;11.90;8.20;;;;;;;18.21;66.99;102505.09;144994;596;5002;-90
2021/10/19 06:49:10;;;;;;;7.68;6.87;;;;;;;18.18;67.11;102503.25;144994;582;5002;-88
2021/10/19 06:51:37;;;;;;;9.30;7.15;;;;;;;18.19;67.34;102514.69;144994;614;5002;-91
2021/10/19 06:54:05;;;;;;;11.43;7.80;;;;;;;18.23;67.05;102521.78;144994;587;5002;-90
2021/10/19 06:56:42;;;;;;;10.07;6.62;;;;;;;18.27;67.11;102527.16;144994;594;5002;-87
2021/10/19 06:59:09;;;;;;;11.68;7.43;;;;;;;18.32;66.93;102527.28;144994;563;5002;-88
2021/10/19 07:01:36;;;;;;;8.52;7.47;;;;;;;18.32;66.66;102532.53;144994;578;5003;-90
2021/10/19 07:04:02;;;;;;;9.35;6.87;;;;;;;18.32;66.65;102532.53;144994;621;5002;-89
2021/10/19 07:06:30;;;;;;;9.18;8.25;;;;;;;18.32;67.03;102537.81;144994;587;5002;-91
2021/10/19 07:08:57;;;;;;;10.90;8.20;;;;;;;18.37;67.26;102543.19;144994;580;5003;-90
2021/10/19 07:11:26;;;;;;;11.38;8.82;;;;;;;18.40;67.04;102545.91;144994;564;5002;-90
2021/10/19 07:13:55;;;;;;;12.70;8.63;;;;;;;18.46;66.74;102554.81;144994;576;5002;-90
2021/10/19 07:16:22;;;;;;;11.55;8.85;;;;;;;18.52;66.87;102563.72;144994;571;5002;-89
2021/10/19 07:18:49;;;;;;;13.93;9.18;;;;;;;18.54;66.51;102559.41;144994;621;5002;-91
2021/10/19 07:21:15;;;;;;;10.48;9.02;;;;;;;18.58;66.46;102566.50;144994;566;5002;-89
2021/10/19 07:23:42;;;;;;;10.50;9.38;;;;;;;18.60;66.91;102570.09;144994;595;5002;-89
2021/10/19 07:26:09;;;;;;;9.10;8.20;;;;;;;18.63;66.40;102570.19;144994;624;5002;-89
2021/10/19 07:28:35;;;;;;;9.02;7.32;;;;;;;18.61;67.05;102570.13;144994;587;5002;-89
2021/10/19 07:31:01;;;;;;;8.20;7.35;;;;;;;18.65;66.87;102569.34;144994;602;5002;-89
2021/10/19 07:33:28;;;;;;;9.85;6.97;;;;;;;18.67;67.10;102572.94;144994;589;5002;-92
2021/10/19 07:35:54;;;;;;;10.95;6.72;;;;;;;18.88;68.14;102570.81;144994;591;5002;-90
2021/10/19 07:38:21;;;;;;;8.10;6.20;;;;;;;19.27;67.26;102573.53;144994;599;5002;-88
2021/10/19 07:40:47;;;;;;;6.97;6.28;;;;;;;19.49;66.37;102574.91;144994;569;5002;-90
2021/10/19 07:43:14;;;;;;;7.07;6.00;;;;;;;19.60;66.04;102571.59;144994;566;5002;-90
2021/10/19 07:45:42;;;;;;;10.13;6.72;;;;;;;19.68;65.93;102577.94;144994;665;5002;-88
2021/10/19 07:48:09;;;;;;;7.80;5.97;;;;;;;19.73;65.76;102566.63;144994;596;5002;-90
2021/10/19 07:50:36;;;;;;;8.25;6.30;;;;;;;19.75;65.80;102567.56;144994;627;5002;-91
2021/10/19 07:53:02;;;;;;;7.87;5.93;;;;;;;19.78;65.70;102569.41;144994;647;4565;-87
2021/10/19 07:55:33;;;;;;;7.30;5.72;;;;;;;19.81;65.80;102563.31;144994;604;4572;-91
2021/10/19 07:57:59;;;;;;;5.93;5.12;;;;;;;19.83;65.69;102566.88;144994;653;4572;-89
2021/10/19 08:00:29;;;;;;;7.05;5.18;;;;;;;19.88;65.96;102568.72;144992;597;6002;-91
2021/10/19 08:02:57;;;;;;;7.28;5.53;;;;;;;19.97;65.79;102575.06;144992;659;6002;-91
2021/10/19 08:05:24;;;;;;;6.25;5.50;;;;;;;19.98;65.63;102572.47;144992;682;6002;-90
2021/10/19 08:08:03;;;;;;;6.70;5.90;;;;;;;19.96;64.52;102568.87;144992;617;6002;-90
2021/10/19 08:10:32;;;;;;;8.98;7.75;;;;;;;19.84;65.76;102566.91;144992;609;6002;-90
2021/10/19 08:12:59;;;;;;;8.13;7.32;;;;;;;19.71;58.36;102565.72;144992;619;6002;-92
2021/10/19 08:15:25;;;;;;;9.82;8.52;;;;;;;19.84;60.65;102574.81;144992;588;6002;-90
2021/10/19 08:17:53;;;;;;;11.55;8.60;;;;;;;20.00;64.91;102575.13;144992;664;6002;-90
2021/10/19 08:20:23;;;;;;;9.27;7.85;;;;;;;20.06;64.52;102578.78;144992;648;6002;-88
2021/10/19 08:22:51;;;;;;;8.68;7.55;;;;;;;20.08;63.43;102576.16;144992;667;6002;-90
2021/10/19 08:25:30;;;;;;;8.77;7.50;;;;;;;20.08;62.32;102578.81;144992;677;6002;-81
2021/10/19 08:27:59;;;;;;;10.15;7.80;;;;;;;20.39;63.43;102580.25;144992;569;6002;-92
2021/10/19 08:30:25;;;;;;;7.95;7.10;;;;;;;20.65;62.84;102579.91;144992;616;6002;-92
2021/10/19 08:32:52;;;;;;;8.07;7.37;;;;;;;20.83;56.99;102571.41;144992;628;6002;-90
2021/10/19 08:35:22;;;;;;;8.55;7.55;;;;;;;21.05;59.26;102570.00;144992;578;6002;-91
2021/10/19 08:37:50;;;;;;;7.93;7.07;;;;;;;21.35;61.92;102576.63;144992;564;6002;-94
2021/10/19 08:40:17;;;;;;;7.87;7.07;;;;;;;21.80;61.86;102583.41;144992;595;6002;-91
2021/10/19 08:42:45;;;;;;;8.05;7.22;;;;;;;22.05;61.04;102576.69;144992;607;6002;-93
2021/10/19 08:45:15;;;;;;;8.23;7.43;;;;;;;22.28;55.66;102574.25;144991;589;6002;-91
2021/10/19 08:47:46;;;;;;;9.02;7.90;;;;;;;22.51;59.12;102584.25;144992;573;6002;-93
2021/10/19 08:50:17;;;;;;;8.60;7.05;;;;;;;22.78;60.21;102588.91;144992;601;6002;-88
2021/10/19 08:52:46;;;;;;;7.57;6.80;;;;;;;23.00;58.70;102584.69;144992;579;6002;-95
2021/10/19 08:55:13;;;;;;;8.27;7.47;;;;;;;23.31;60.27;102578.72;144992;593;6002;-80
2021/10/19 08:57:40;;;;;;;9.13;7.25;;;;;;;23.22;54.23;102582.19;144992;575;6002;-80
2021/10/19 09:00:11;;;;;;;7.70;7.00;;;;;;;23.30;59.51;102584.91;144992;564;6002;-90
2021/10/19 09:02:49;;;;;;;7.43;6.72;;;;;;;23.31;57.74;102578.72;144992;582;6002;-80
2021/10/19 09:05:22;;;;;;;7.00;5.87;;;;;;;23.39;55.98;102586.72;144992;572;6002;-90
2021/10/19 09:08:03;;;;;;;6.60;5.93;;;;;;;23.61;58.84;102582.44;144992;582;6002;-86
2021/10/19 09:10:39;;;;;;;8.45;6.68;;;;;;;23.83;56.18;102570.13;144992;610;6002;-91
2021/10/19 09:13:08;;;;;;;8.80;8.00;;;;;;;23.86;58.54;102581.69;144992;607;6002;-79
2021/10/19 09:15:37;;;;;;;10.40;7.62;;;;;;;23.79;56.01;102576.31;144992;576;6002;-79
2021/10/19 09:18:06;;;;;;;7.40;6.72;;;;;;;23.83;58.15;102578.09;144992;567;6002;-81
2021/10/19 09:20:42;;;;;;;7.80;7.00;;;;;;;23.43;52.72;102578.81;144992;565;6002;-92
2021/10/19 09:23:12;;;;;;;9.00;7.25;;;;;;;23.09;57.54;102596.25;144992;585;6002;-88
2021/10/19 09:25:42;;;;;;;7.80;7.10;;;;;;;22.85;57.95;102588.97;144992;577;6002;-91
2021/10/19 09:28:11;;;;;;;7.90;7.20;;;;;;;22.63;58.30;102584.34;144992;651;6002;-92
2021/10/19 09:31:21;;;;;;;8.60;7.68;;;;;;;22.49;58.25;102575.37;144992;574;6002;-81
2021/10/19 09:34:06;;;;;;;8.82;7.78;;;;;;;22.39;58.07;102576.19;144992;658;6004;-81
2021/10/19 09:37:27;;;;;;;8.63;7.82;;;;;;;22.17;58.10;102569.75;144992;565;6002;-80
2021/10/19 09:39:55;;;;;;;9.15;8.20;;;;;;;21.84;51.49;102557.91;144992;568;6004;-80
2021/10/19 09:43:12;;;;;;;11.90;7.93;;;;;;;21.84;56.01;102569.37;144992;625;6002;-80
2021/10/19 09:45:53;;;;;;;;;;;;;;;;;;;;;
2021/10/19 09:49:14;;;;;;;9.55;7.97;;;;;;;21.66;57.04;102559.44;144992;572;6004;-81
2021/10/19 09:52:38;;;;;;;;;;;;;;;;;;;;;
2021/10/19 09:55:36;;;;;;;7.82;7.10;;;;;;;21.52;57.83;102558.38;144992;563;6004;-79
2021/10/19 09:58:11;;;;;;;8.10;7.40;;;;;;;21.43;56.73;102545.00;144992;611;6002;-81
2021/10/19 10:01:10;;;;;;;;;;;;;;;;;;;;;
2021/10/19 10:03:57;;;;;;;8.38;7.57;;;;;;;21.07;51.66;102543.62;144992;569;6004;-81
2021/10/19 10:06:31;;;;;;;8.13;7.32;;;;;;;20.90;55.09;102548.63;144992;585;6004;-81
2021/10/19 10:09:16;;;;;;;7.57;6.87;;;;;;;20.76;53.44;102538.75;144992;595;6004;-80
2021/10/19 10:12:07;;;;;;;8.73;7.47;;;;;;;21.08;56.66;102566.50;144992;562;6004;-81
2021/10/19 10:14:48;;;;;;;8.23;7.43;;;;;;;21.36;56.52;102560.78;144992;601;6004;-81
2021/10/19 10:17:29;;;;;;;8.35;7.55;;;;;;;21.43;53.35;102558.22;144992;608;6004;-83
2021/10/19 10:20:19;;;;;;;9.00;7.97;;;;;;;21.07;51.19;102551.53;144992;648;6004;-81
2021/10/19 10:22:48;;;;;;;8.23;7.22;;;;;;;20.94;55.04;102548.72;144992;573;6004;-81
2021/10/19 10:25:24;;;;;;;8.65;7.82;;;;;;;20.77;54.39;102556.34;144992;636;6004;-80
2021/10/19 10:28:29;;;;;;;8.23;7.45;;;;;;;20.69;55.71;102565.87;144992;561;6004;-80
2021/10/19 11:28:13;;;;;;;7.80;7.00;;;;;;;20.18;59.14;102519.22;144992;647;6002;-82
2021/10/19 11:31:51;;;;;;;11.23;7.32;;;;;;;20.29;59.17;102510.63;144992;567;6004;-80
2021/10/19 11:38:28;;;;;;;13.43;6.32;;;;;;;20.53;58.88;102514.56;144992;675;6002;-82
2021/10/19 11:44:14;;;;;;;7.47;6.20;;;;;;;20.56;59.11;102500.56;144992;577;6002;-87
2021/10/19 11:46:41;;;;;;;8.35;6.87;;;;;;;20.63;59.36;102505.06;144992;620;6002;-90
2021/10/19 11:49:37;;;;;;;7.22;6.50;;;;;;;20.69;58.94;102502.56;144992;594;6002;-89
2021/10/19 11:52:04;;;;;;;6.25;5.60;;;;;;;20.67;58.79;102499.00;144992;634;6004;-88
2021/10/19 11:54:35;;;;;;;6.53;5.60;;;;;;;20.82;58.23;102494.00;144992;583;6004;-88
2021/10/19 11:57:11;;;;;;;8.13;6.25;;;;;;;20.75;58.71;102488.59;144992;618;6004;-91
2021/10/19 11:59:49;;;;;;;5.87;5.30;;;;;;;20.69;58.85;102489.38;144992;582;6004;-92
2021/10/19 12:02:22;;;;;;;7.12;5.78;;;;;;;20.87;58.51;102493.16;144992;572;6004;-91
2021/10/19 12:04:50;;;;;;;6.55;4.95;;;;;;;20.88;58.80;102487.91;144992;673;6004;-88
2021/10/19 12:07:29;;;;;;;6.25;5.65;;;;;;;21.01;58.27;102487.22;144992;569;6004;-93
2021/10/19 12:09:56;;;;;;;6.47;5.82;;;;;;;20.92;58.27;102465.06;144992;589;6004;-92
2021/10/19 12:12:36;;;;;;;7.00;6.15;;;;;;;20.84;58.66;102478.19;144992;600;6004;-92
2021/10/19 12:15:22;;;;;;;7.20;6.45;;;;;;;20.66;59.11;102473.47;144992;576;6004;-82
2021/10/19 12:17:56;;;;;;;6.57;5.97;;;;;;;20.94;58.55;102469.50;144992;587;6004;-82
2021/10/19 12:20:26;;;;;;;8.50;6.68;;;;;;;20.82;58.84;102477.25;144997;576;6004;-83
2021/10/19 12:22:58;;;;;;;8.20;6.47;;;;;;;20.62;58.71;102471.63;144992;643;6002;-91
2021/10/19 12:25:25;;;;;;;7.30;5.47;;;;;;;20.56;58.69;102477.69;144992;577;6002;-89
2021/10/19 12:27:52;;;;;;;9.63;8.63;;;;;;;20.32;59.28;102474.66;144992;613;6002;-88
2021/10/19 12:30:19;;;;;;;8.05;6.62;;;;;;;20.29;59.28;102468.44;144992;578;6002;-89
2021/10/19 12:32:45;;;;;;;6.82;6.10;;;;;;;20.26;58.86;102460.47;144992;563;6002;-88
2021/10/19 12:35:13;;;;;;;8.68;6.75;;;;;;;20.11;59.35;102454.97;144992;703;6002;-89
2021/10/19 12:37:42;;;;;;;7.47;6.68;;;;;;;20.06;59.60;102459.25;144992;569;6002;-87
2021/10/19 12:40:13;;;;;;;8.57;7.00;;;;;;;20.00;59.71;102456.53;144992;581;6002;-87
2021/10/19 12:42:45;;;;;;;7.68;6.95;;;;;;;20.03;59.60;102453.94;144991;577;6002;-87
2021/10/19 12:45:11;;;;;;;8.13;7.40;;;;;;;19.96;59.85;102457.31;144992;658;6002;-83
2021/10/19 12:47:39;;;;;;;9.05;8.15;;;;;;;19.75;60.55;102448.09;144992;577;6002;-89
2021/10/19 12:50:07;;;;;;;11.40;8.68;;;;;;;19.80;60.47;102451.75;144992;565;6002;-88
2021/10/19 12:52:33;;;;;;;10.00;8.25;;;;;;;19.69;60.63;102445.34;144992;592;6002;-91
2021/10/19 12:55:00;;;;;;;6.60;6.00;;;;;;;19.48;61.12;102440.56;144991;608;6002;-85
2021/10/19 12:57:27;;;;;;;8.30;7.05;;;;;;;19.53;61.16;102449.44;144992;564;6002;-89